Time;durP1;ratioP1;P1;durP2;ratioP2;P2;SDS_P1;SDS_P2;PMS_P1;PMS_P2;Temp;Humidity;BMP_temperature;BMP_pressure;BME280_temperature;BME280_humidity;BME280_pressure;Samples;Min_cycle;Max_cycle;Signal;HPM_P1;HPM_P2
2022/03/30 00:01:12;;;;;;;;;;;6.30;99.90;;;;;;5133358;27;20276;-68
2022/03/30 00:03:38;;;;;;;;;;;6.30;99.90;;;;;;5133499;27;20019;-67
2022/03/30 00:06:06;;;;;;;;;;;6.30;99.90;;;;;;5133672;27;19915;-67
2022/03/30 00:08:32;;;;;;;;;;;6.30;99.90;;;;;;5133238;27;19927;-67
2022/03/30 00:10:58;;;;;;;;;;;6.20;99.90;;;;;;5133392;27;19915;-67
2022/03/30 00:13:23;;;;;;;;;;;6.20;99.90;;;;;;5132083;27;19915;-67
2022/03/30 00:15:49;;;;;;;;;;;6.10;99.90;;;;;;5133306;27;19926;-68
2022/03/30 00:18:15;;;;;;;;;;;6.00;99.90;;;;;;5133194;27;19915;-67
2022/03/30 00:20:40;;;;;;;;;;;6.10;99.90;;;;;;5132977;27;19922;-67
2022/03/30 00:23:06;;;;;;;;;;;6.10;99.90;;;;;;5133100;27;19945;-67
2022/03/30 00:25:31;;;;;;;;;;;6.00;99.90;;;;;;5133195;27;19915;-67
2022/03/30 00:27:57;;;;;;;;;;;6.00;99.90;;;;;;5133088;27;19926;-67
2022/03/30 00:30:23;;;;;;;;;;;6.00;99.90;;;;;;5132569;27;19938;-67
2022/03/30 00:32:49;;;;;;;;;;;5.90;99.90;;;;;;5133197;27;19966;-67
2022/03/30 00:35:15;;;;;;;;;;;5.90;99.90;;;;;;5133068;27;19915;-67
2022/03/30 00:37:41;;;;;;;;;;;5.90;99.90;;;;;;5132961;27;19915;-67
2022/03/30 00:40:09;;;;;;;;;;;5.90;99.90;;;;;;5132530;27;19959;-67
2022/03/30 00:42:34;;;;;;;;;;;5.80;99.90;;;;;;5132618;27;20025;-67
2022/03/30 00:45:08;;;;;;;;;;;5.90;99.90;;;;;;5132641;27;19980;-68
2022/03/30 00:47:33;;;;;;;;;;;5.80;99.90;;;;;;5132621;27;19922;-67
2022/03/30 00:49:59;;;;;;;;;;;5.80;99.90;;;;;;5132398;27;20306;-67
2022/03/30 00:52:24;;;;;;;;;;;5.80;99.90;;;;;;5132744;27;19916;-67
2022/03/30 00:54:50;;;;;;;;;;;5.80;99.90;;;;;;5132679;27;20404;-66
2022/03/30 00:57:18;;;;;;;;;;;5.80;99.90;;;;;;5132458;27;20333;-68
2022/03/30 00:59:44;;;;;;;;;;;5.80;99.90;;;;;;5132433;27;19915;-68
2022/03/30 01:02:10;;;;;;;;;;;5.80;99.90;;;;;;5132743;27;19916;-67
2022/03/30 01:04:35;;;;;;;;;;;5.80;99.90;;;;;;5132620;27;20276;-67
2022/03/30 01:07:01;;;;;;;;;;;5.80;99.90;;;;;;5132660;27;19960;-67
2022/03/30 01:09:27;;;;;;;;;;;5.80;99.90;;;;;;5131996;27;20640;-67
2022/03/30 01:11:53;;;;;;;;;;;5.70;99.90;;;;;;5131825;27;20340;-67
2022/03/30 01:14:19;;;;;;;;;;;5.80;99.90;;;;;;5132585;27;20323;-67
2022/03/30 01:16:44;;;;;;;;;;;5.80;99.90;;;;;;5131435;28;19970;-68
2022/03/30 01:19:10;;;;;;;;;;;5.80;99.90;;;;;;5132112;27;19916;-67
2022/03/30 01:21:37;;;;;;;;;;;5.80;99.90;;;;;;5132544;27;20442;-67
2022/03/30 01:24:02;;;;;;;;;;;5.80;99.90;;;;;;5132443;27;19915;-67
2022/03/30 01:26:28;;;;;;;;;;;5.80;99.90;;;;;;5131259;27;19946;-67
2022/03/30 01:28:54;;;;;;;;;;;5.70;99.90;;;;;;5132004;27;19945;-67
2022/03/30 01:34:04;;;;;;;;;;;5.70;99.90;;;;;;5132362;27;19915;-67
2022/03/30 01:36:30;;;;;;;;;;;5.80;99.90;;;;;;5132258;27;19916;-67
2022/03/30 01:38:55;;;;;;;;;;;5.80;99.90;;;;;;5131658;27;19964;-67
2022/03/30 01:41:20;;;;;;;;;;;5.70;99.90;;;;;;5131914;27;19938;-67
2022/03/30 01:43:46;;;;;;;;;;;5.70;99.90;;;;;;5132393;27;20002;-67
2022/03/30 01:46:11;;;;;;;;;;;5.70;99.90;;;;;;5130652;27;19921;-68
2022/03/30 01:48:37;;;;;;;;;;;5.70;99.90;;;;;;5131748;27;20279;-68
2022/03/30 01:51:02;;;;;;;;;;;5.70;99.90;;;;;;5131876;27;19919;-67
2022/03/30 01:53:28;;;;;;;;;;;5.70;99.90;;;;;;5131934;27;20514;-67
2022/03/30 01:55:53;;;;;;;;;;;5.70;99.90;;;;;;5131902;27;20013;-67
2022/03/30 01:58:19;;;;;;;;;;;5.70;99.90;;;;;;5131992;27;19925;-68
2022/03/30 02:00:45;;;;;;;;;;;5.60;99.90;;;;;;5131874;27;20018;-67
2022/03/30 02:03:12;;;;;;;;;;;5.60;99.90;;;;;;5132105;27;20286;-67
2022/03/30 02:05:37;;;;;;;;;;;5.60;99.90;;;;;;5132093;27;20355;-68
2022/03/30 02:08:03;;;;;;;;;;;5.60;99.90;;;;;;5131774;27;19964;-67
2022/03/30 02:10:29;;;;;;;;;;;5.60;99.90;;;;;;5131463;27;19919;-67
2022/03/30 02:12:55;;;;;;;;;;;5.50;99.90;;;;;;5132058;27;19930;-68
2022/03/30 02:15:22;;;;;;;;;;;5.50;99.90;;;;;;5132041;27;20325;-67
2022/03/30 02:17:48;;;;;;;;;;;5.50;99.90;;;;;;5131857;27;19923;-67
2022/03/30 02:20:13;;;;;;;;;;;5.60;99.90;;;;;;5131506;27;19938;-67
2022/03/30 02:22:39;;;;;;;;;;;5.60;99.90;;;;;;5131765;27;19919;-67
2022/03/30 02:25:05;;;;;;;;;;;5.60;99.90;;;;;;5134205;27;19964;-67
2022/03/30 02:27:30;;;;;;;;;;;5.60;99.90;;;;;;5141529;27;19922;-66
2022/03/30 02:29:56;;;;;;;;;;;5.60;99.90;;;;;;5139931;27;19919;-67
2022/03/30 02:32:22;;;;;;;;;;;5.60;99.90;;;;;;5140825;27;20603;-66
2022/03/30 02:34:47;;;;;;;;;;;5.60;99.90;;;;;;5140876;27;19966;-66
2022/03/30 02:37:13;;;;;;;;;;;5.70;99.90;;;;;;5139960;27;19919;-66
2022/03/30 02:39:39;;;;;;;;;;;5.70;99.90;;;;;;5134126;27;20406;-67
2022/03/30 02:42:07;;;;;;;;;;;5.80;99.90;;;;;;5135049;27;19997;-67
2022/03/30 02:44:33;;;;;;;;;;;5.70;99.90;;;;;;5135190;27;20047;-67
2022/03/30 02:47:00;;;;;;;;;;;5.80;99.90;;;;;;5135144;27;19954;-66
2022/03/30 02:49:26;;;;;;;;;;;5.80;99.90;;;;;;5134548;27;20033;-66
2022/03/30 02:51:52;;;;;;;;;;;5.70;99.90;;;;;;5134939;27;19915;-66
2022/03/30 02:54:18;;;;;;;;;;;5.70;99.90;;;;;;5135067;27;19919;-67
2022/03/30 02:56:43;;;;;;;;;;;5.70;99.90;;;;;;5135024;27;19922;-66
2022/03/30 02:59:09;;;;;;;;;;;5.80;99.90;;;;;;5134138;27;20375;-66
2022/03/30 03:01:34;;;;;;;;;;;5.80;99.90;;;;;;5134800;27;19915;-66
2022/03/30 03:04:00;;;;;;;;;;;5.70;99.90;;;;;;5134675;27;19919;-66
2022/03/30 03:06:25;;;;;;;;;;;5.70;99.90;;;;;;5134668;27;20495;-67
2022/03/30 03:08:51;;;;;;;;;;;5.80;99.90;;;;;;5133993;27;19939;-67
2022/03/30 03:11:17;;;;;;;;;;;5.80;99.90;;;;;;5134677;27;19916;-66
2022/03/30 03:13:42;;;;;;;;;;;5.90;99.90;;;;;;5134655;27;20372;-66
2022/03/30 03:16:08;;;;;;;;;;;5.90;99.90;;;;;;5134460;27;19967;-65
2022/03/30 03:18:35;;;;;;;;;;;5.90;99.90;;;;;;5132846;27;19944;-67
2022/03/30 03:21:00;;;;;;;;;;;6.00;99.90;;;;;;5134235;27;19916;-66
2022/03/30 03:23:26;;;;;;;;;;;6.00;99.90;;;;;;5134556;27;20381;-66
2022/03/30 03:25:53;;;;;;;;;;;6.00;99.90;;;;;;5134423;27;20386;-67
2022/03/30 03:28:18;;;;;;;;;;;6.00;99.90;;;;;;5134125;27;19919;-66
2022/03/30 03:30:44;;;;;;;;;;;6.00;99.90;;;;;;5133857;27;19915;-66
2022/03/30 03:33:11;;;;;;;;;;;6.00;99.90;;;;;;5134217;27;19915;-67
2022/03/30 03:35:37;;;;;;;;;;;6.00;99.90;;;;;;5133524;27;19930;-66
2022/03/30 03:38:03;;;;;;;;;;;6.00;99.90;;;;;;5133782;27;20317;-67
2022/03/30 03:40:30;;;;;;;;;;;6.00;99.90;;;;;;5133516;27;20375;-66
2022/03/30 03:42:57;;;;;;;;;;;6.00;99.90;;;;;;5134052;27;19915;-67
2022/03/30 03:45:22;;;;;;;;;;;6.00;99.90;;;;;;5133990;27;19946;-66
2022/03/30 03:47:48;;;;;;;;;;;6.00;99.90;;;;;;5133715;27;19994;-66
2022/03/30 03:50:13;;;;;;;;;;;6.00;99.90;;;;;;5133215;27;19919;-66
2022/03/30 03:52:39;;;;;;;;;;;6.10;99.90;;;;;;5133590;27;19916;-66
2022/03/30 03:55:05;;;;;;;;;;;6.10;99.90;;;;;;5133868;27;19915;-67
2022/03/30 03:57:32;;;;;;;;;;;6.10;99.90;;;;;;5133507;27;20367;-66
2022/03/30 03:59:58;;;;;;;;;;;6.10;99.90;;;;;;5133373;27;19919;-66
2022/03/30 04:02:23;;;;;;;;;;;6.10;99.90;;;;;;5133571;27;19922;-66
2022/03/30 04:04:49;;;;;;;;;;;6.00;99.90;;;;;;5135203;27;20294;-67
2022/03/30 04:07:15;;;;;;;;;;;6.00;99.90;;;;;;5137241;27;19976;-66
2022/03/30 04:09:40;;;;;;;;;;;5.90;99.90;;;;;;5136576;27;19919;-66
2022/03/30 04:12:06;;;;;;;;;;;5.90;99.90;;;;;;5136894;27;19922;-66
2022/03/30 04:14:31;;;;;;;;;;;6.00;99.90;;;;;;5136474;27;19961;-66
2022/03/30 04:16:57;;;;;;;;;;;6.00;99.90;;;;;;5136458;27;19926;-67
2022/03/30 04:19:22;;;;;;;;;;;6.00;99.90;;;;;;5132829;27;19979;-66
2022/03/30 04:21:48;;;;;;;;;;;6.00;99.90;;;;;;5133180;27;19930;-66
2022/03/30 04:24:13;;;;;;;;;;;6.00;99.90;;;;;;5133278;27;19969;-66
2022/03/30 04:26:39;;;;;;;;;;;6.00;99.90;;;;;;5133231;27;19919;-67
2022/03/30 04:29:05;;;;;;;;;;;6.00;99.90;;;;;;5132536;27;19926;-66
2022/03/30 04:31:30;;;;;;;;;;;6.00;99.90;;;;;;5133009;27;20023;-66
2022/03/30 04:33:56;;;;;;;;;;;6.00;99.90;;;;;;5132828;27;19916;-66
2022/03/30 04:36:21;;;;;;;;;;;6.00;99.90;;;;;;5132971;27;20379;-67
2022/03/30 04:38:47;;;;;;;;;;;5.90;99.90;;;;;;5132761;27;19920;-67
2022/03/30 04:41:12;;;;;;;;;;;6.00;99.90;;;;;;5132849;27;20325;-66
2022/03/30 04:43:38;;;;;;;;;;;6.00;99.90;;;;;;5132820;27;19926;-66
2022/03/30 04:46:05;;;;;;;;;;;6.00;99.90;;;;;;5132188;27;19915;-67
2022/03/30 04:48:31;;;;;;;;;;;5.90;99.90;;;;;;5132072;27;19959;-66
2022/03/30 04:50:56;;;;;;;;;;;6.00;99.90;;;;;;5132645;27;20390;-67
2022/03/30 04:53:22;;;;;;;;;;;6.00;99.90;;;;;;5132811;27;19953;-66
2022/03/30 04:55:47;;;;;;;;;;;6.10;99.90;;;;;;5132715;27;20294;-67
2022/03/30 04:58:13;;;;;;;;;;;6.00;99.90;;;;;;5132480;27;19967;-66
2022/03/30 05:00:38;;;;;;;;;;;6.00;99.90;;;;;;5132016;27;20442;-66
2022/03/30 05:03:04;;;;;;;;;;;6.00;99.90;;;;;;5132556;27;19916;-66
2022/03/30 05:05:29;;;;;;;;;;;6.10;99.90;;;;;;5132152;27;19923;-67
2022/03/30 05:07:55;;;;;;;;;;;6.10;99.90;;;;;;5132494;27;20322;-66
2022/03/30 05:10:21;;;;;;;;;;;6.10;99.90;;;;;;5131916;27;19920;-66
2022/03/30 05:12:46;;;;;;;;;;;6.10;99.90;;;;;;5132354;27;19915;-67
2022/03/30 05:15:12;;;;;;;;;;;6.10;99.90;;;;;;5132383;27;19919;-67
2022/03/30 05:17:38;;;;;;;;;;;6.10;99.90;;;;;;5132272;27;20268;-66
2022/03/30 05:20:04;;;;;;;;;;;6.10;99.90;;;;;;5132042;27;19915;-66
2022/03/30 05:22:30;;;;;;;;;;;6.10;99.90;;;;;;5132392;27;19984;-66
2022/03/30 05:24:55;;;;;;;;;;;6.20;99.90;;;;;;5132444;27;19915;-66
2022/03/30 05:27:21;;;;;;;;;;;6.10;99.90;;;;;;5130812;27;19922;-66
2022/03/30 05:29:46;;;;;;;;;;;6.00;99.90;;;;;;5128923;27;20384;-67
2022/03/30 05:32:12;;;;;;;;;;;6.10;99.90;;;;;;5129610;27;19919;-66
2022/03/30 05:34:37;;;;;;;;;;;6.10;99.90;;;;;;5130903;27;19962;-66
2022/03/30 05:37:03;;;;;;;;;;;6.10;99.90;;;;;;5132321;27;20370;-67
2022/03/30 05:39:30;;;;;;;;;;;6.10;99.90;;;;;;5131483;27;19958;-67
2022/03/30 05:41:55;;;;;;;;;;;6.10;99.90;;;;;;5131707;27;19915;-66
2022/03/30 05:44:21;;;;;;;;;;;6.00;99.90;;;;;;5131656;27;20289;-67
2022/03/30 05:46:46;;;;;;;;;;;6.10;99.90;;;;;;5131506;27;19922;-66
2022/03/30 05:49:12;;;;;;;;;;;6.10;99.90;;;;;;5130907;27;19945;-66
2022/03/30 05:51:37;;;;;;;;;;;6.10;99.90;;;;;;5131154;27;19919;-67
2022/03/30 05:54:03;;;;;;;;;;;6.00;99.90;;;;;;5131037;27;19926;-66
2022/03/30 05:59:15;;;;;;;;;;;6.10;99.90;;;;;;5134682;27;20409;-66
2022/03/30 06:01:40;;;;;;;;;;;6.10;99.90;;;;;;5135733;27;20291;-66
2022/03/30 06:04:06;;;;;;;;;;;6.10;99.90;;;;;;5135881;27;19915;-67
2022/03/30 06:06:32;;;;;;;;;;;6.00;99.90;;;;;;5135862;27;19998;-66
2022/03/30 06:08:58;;;;;;;;;;;6.00;99.90;;;;;;5135369;27;20394;-67
2022/03/30 06:11:24;;;;;;;;;;;6.00;99.90;;;;;;5135771;27;20395;-66
2022/03/30 06:13:49;;;;;;;;;;;6.10;99.90;;;;;;5135616;27;19962;-66
2022/03/30 06:16:15;;;;;;;;;;;6.00;99.90;;;;;;5122234;27;19916;-66
2022/03/30 06:18:40;;;;;;;;;;;6.00;99.90;;;;;;5104538;27;19915;-66
2022/03/30 06:21:06;;;;;;;;;;;6.00;99.90;;;;;;5126017;27;20034;-66
2022/03/30 06:23:31;;;;;;;;;;;6.00;99.90;;;;;;5133364;27;19938;-67
2022/03/30 06:25:57;;;;;;;;;;;6.00;99.90;;;;;;5133278;27;20430;-66
2022/03/30 06:28:26;;;;;;;;;;;6.00;99.90;;;;;;5135273;27;19919;-66
2022/03/30 06:30:52;;;;;;;;;;;6.00;99.90;;;;;;5135073;27;19927;-69
2022/03/30 06:33:17;;;;;;;;;;;6.10;99.90;;;;;;5135462;27;19922;-66
2022/03/30 06:35:43;;;;;;;;;;;6.20;99.90;;;;;;5135292;27;19919;-66
2022/03/30 06:38:08;;;;;;;;;;;6.20;99.90;;;;;;5134631;27;19968;-66
2022/03/30 06:40:34;;;;;;;;;;;6.20;99.90;;;;;;5133461;27;19998;-67
2022/03/30 06:43:00;;;;;;;;;;;6.20;99.90;;;;;;5135204;27;19923;-66
2022/03/30 06:45:28;;;;;;;;;;;6.20;99.90;;;;;;5134946;27;20348;-66
2022/03/30 06:47:54;;;;;;;;;;;6.30;99.90;;;;;;5134904;27;20320;-66
2022/03/30 06:50:19;;;;;;;;;;;6.20;99.90;;;;;;5134630;27;19944;-67
2022/03/30 06:52:45;;;;;;;;;;;6.20;99.90;;;;;;5134828;27;19916;-66
2022/03/30 06:55:12;;;;;;;;;;;6.30;99.90;;;;;;5134953;27;19915;-68
2022/03/30 06:57:38;;;;;;;;;;;6.40;99.90;;;;;;5129269;27;19970;-66
2022/03/30 07:00:04;;;;;;;;;;;6.40;99.90;;;;;;5104805;28;19966;-66
2022/03/30 07:02:30;;;;;;;;;;;6.40;99.90;;;;;;5102044;28;20007;-65
2022/03/30 07:04:55;;;;;;;;;;;6.40;99.90;;;;;;5103944;28;19990;-66
2022/03/30 07:10:17;;;;;;;;;;;6.50;99.90;;;;;;5101769;28;19973;-65
2022/03/30 07:12:47;;;;;;;;;;;6.60;99.90;;;;;;5104659;28;19942;-65
2022/03/30 07:15:13;;;;;;;;;;;6.60;99.90;;;;;;5100146;28;19916;-68
2022/03/30 07:17:48;;;;;;;;;;;6.70;99.90;;;;;;5092502;28;19921;-68
2022/03/30 07:20:14;;;;;;;;;;;6.80;99.90;;;;;;5093103;28;19916;-68
2022/03/30 07:22:40;;;;;;;;;;;6.80;99.90;;;;;;5093392;28;19916;-68
2022/03/30 07:25:06;;;;;;;;;;;6.80;99.90;;;;;;5091992;28;19938;-68
2022/03/30 07:27:31;;;;;;;;;;;6.90;99.90;;;;;;5091893;28;19958;-67
2022/03/30 07:29:57;;;;;;;;;;;6.90;99.90;;;;;;5092947;28;20642;-68
2022/03/30 07:32:23;;;;;;;;;;;7.00;99.90;;;;;;5093319;28;19973;-68
2022/03/30 07:34:49;;;;;;;;;;;7.00;99.90;;;;;;5093255;28;19926;-69
2022/03/30 07:37:14;;;;;;;;;;;7.00;99.90;;;;;;5092610;28;20002;-69
2022/03/30 07:39:40;;;;;;;;;;;7.10;99.90;;;;;;5092889;28;19916;-68
2022/03/30 07:42:06;;;;;;;;;;;7.10;99.90;;;;;;5093157;28;20291;-68
2022/03/30 07:44:31;;;;;;;;;;;7.00;99.90;;;;;;5092784;28;20011;-68
2022/03/30 07:46:58;;;;;;;;;;;7.00;99.90;;;;;;5092716;28;19916;-69
2022/03/30 07:49:24;;;;;;;;;;;7.20;99.90;;;;;;5092316;28;19927;-68
2022/03/30 07:51:50;;;;;;;;;;;7.10;99.90;;;;;;5091655;28;20303;-70
2022/03/30 07:54:15;;;;;;;;;;;7.00;99.90;;;;;;5092960;28;19916;-69
2022/03/30 07:56:41;;;;;;;;;;;7.00;99.90;;;;;;5091299;28;20272;-71
2022/03/30 07:59:06;;;;;;;;;;;7.10;99.90;;;;;;5092333;28;20010;-70
2022/03/30 08:01:32;;;;;;;;;;;7.00;99.90;;;;;;5092493;28;20023;-70
2022/03/30 08:03:57;;;;;;;;;;;6.80;99.90;;;;;;5092584;28;19920;-68
2022/03/30 08:06:23;;;;;;;;;;;6.80;99.90;;;;;;5092245;28;20445;-68
2022/03/30 08:08:48;;;;;;;;;;;6.80;99.90;;;;;;5092289;28;19992;-67
2022/03/30 08:11:14;;;;;;;;;;;6.80;99.90;;;;;;5092238;28;19916;-68
2022/03/30 08:13:39;;;;;;;;;;;6.80;99.90;;;;;;5092512;28;19961;-68
2022/03/30 08:16:05;;;;;;;;;;;6.80;99.90;;;;;;5092310;28;19923;-67
2022/03/30 08:18:30;;;;;;;;;;;6.70;99.90;;;;;;5091775;28;20403;-69
2022/03/30 08:23:40;;;;;;;;;;;6.80;99.90;;;;;;5092374;28;19916;-70
2022/03/30 08:26:05;;;;;;;;;;;6.80;99.90;;;;;;5091098;28;19915;-70
2022/03/30 08:28:31;;;;;;;;;;;6.90;99.90;;;;;;5090813;28;20438;-69
2022/03/30 08:30:56;;;;;;;;;;;6.80;99.90;;;;;;5091879;28;19916;-70
2022/03/30 08:33:26;;;;;;;;;;;6.80;99.90;;;;;;5090453;28;19926;-68
2022/03/30 08:35:55;;;;;;;;;;;6.90;99.90;;;;;;5090766;28;19923;-67
2022/03/30 08:38:21;;;;;;;;;;;6.90;99.90;;;;;;5091863;28;19916;-67
2022/03/30 08:40:47;;;;;;;;;;;7.00;99.90;;;;;;5091734;28;19923;-68
2022/03/30 08:43:12;;;;;;;;;;;7.00;99.90;;;;;;5101121;28;20414;-68
2022/03/30 08:45:39;;;;;;;;;;;6.90;99.90;;;;;;5101237;28;19920;-68
2022/03/30 08:48:05;;;;;;;;;;;7.00;99.90;;;;;;5102602;28;19923;-68
2022/03/30 08:50:31;;;;;;;;;;;6.90;99.90;;;;;;5101469;28;19919;-68
2022/03/30 08:53:00;;;;;;;;;;;7.00;99.90;;;;;;5102201;28;19916;-68
2022/03/30 08:55:25;;;;;;;;;;;7.00;99.90;;;;;;5106358;28;20400;-69
2022/03/30 08:57:51;;;;;;;;;;;7.00;99.90;;;;;;5111969;28;19916;-69
2022/03/30 09:00:18;;;;;;;;;;;6.90;99.90;;;;;;5111546;28;19963;-68
2022/03/30 09:02:45;;;;;;;;;;;7.00;99.90;;;;;;5112092;28;19931;-69
2022/03/30 09:05:15;;;;;;;;;;;7.00;99.90;;;;;;5111881;28;20006;-68
2022/03/30 09:07:41;;;;;;;;;;;7.00;99.90;;;;;;5100024;28;20347;-68
2022/03/30 09:10:14;;;;;;;;;;;7.00;99.90;;;;;;5098419;28;20003;-69
2022/03/30 09:12:40;;;;;;;;;;;7.10;99.90;;;;;;5111568;28;19963;-68
2022/03/30 09:15:07;;;;;;;;;;;7.00;99.90;;;;;;5111806;28;19916;-68
2022/03/30 09:17:37;;;;;;;;;;;7.10;99.90;;;;;;5111482;28;19919;-69
2022/03/30 09:20:03;;;;;;;;;;;7.00;99.90;;;;;;5111192;28;19916;-69
2022/03/30 09:22:31;;;;;;;;;;;7.10;99.90;;;;;;5111727;28;20354;-68
2022/03/30 09:24:56;;;;;;;;;;;7.10;99.90;;;;;;5111345;28;19916;-69
2022/03/30 09:27:23;;;;;;;;;;;7.20;99.90;;;;;;5097029;28;19916;-68
2022/03/30 09:29:49;;;;;;;;;;;7.20;99.90;;;;;;5104198;28;19931;-68
2022/03/30 09:32:14;;;;;;;;;;;7.30;99.90;;;;;;5107841;28;19915;-69
2022/03/30 09:34:53;;;;;;;;;;;7.30;99.90;;;;;;5106768;28;19916;-69
2022/03/30 09:37:19;;;;;;;;;;;7.40;99.90;;;;;;5115484;28;19972;-69
2022/03/30 09:39:45;;;;;;;;;;;7.50;99.90;;;;;;5112322;28;19920;-70
2022/03/30 09:42:11;;;;;;;;;;;7.50;99.90;;;;;;5114574;28;19966;-69
2022/03/30 09:44:53;;;;;;;;;;;7.40;99.90;;;;;;5098733;28;19947;-69
2022/03/30 09:47:23;;;;;;;;;;;7.50;99.90;;;;;;5093632;28;19920;-70
2022/03/30 09:49:48;;;;;;;;;;;7.50;99.90;;;;;;5094642;28;19928;-69
2022/03/30 09:52:15;;;;;;;;;;;7.50;99.90;;;;;;5094990;28;19973;-70
2022/03/30 09:54:47;;;;;;;;;;;7.50;99.90;;;;;;5076714;28;19916;-69
2022/03/30 09:57:17;;;;;;;;;;;7.60;99.90;;;;;;5094695;28;19920;-69
2022/03/30 09:59:58;;;;;;;;;;;7.60;99.90;;;;;;5094391;28;20371;-69
2022/03/30 10:02:25;;;;;;;;;;;7.70;99.90;;;;;;5094786;28;20296;-69
2022/03/30 10:04:51;;;;;;;;;;;7.80;99.90;;;;;;5104943;28;19922;-69
2022/03/30 10:07:17;;;;;;;;;;;7.90;99.90;;;;;;5115055;27;19916;-69
2022/03/30 10:09:42;;;;;;;;;;;7.80;99.90;;;;;;5113354;28;20321;-69
2022/03/30 10:12:08;;;;;;;;;;;7.90;99.90;;;;;;5106042;28;19923;-70
2022/03/30 10:14:36;;;;;;;;;;;7.90;99.90;;;;;;5115020;28;19916;-69
2022/03/30 10:17:01;;;;;;;;;;;7.90;99.90;;;;;;5114478;28;20297;-69
2022/03/30 10:19:28;;;;;;;;;;;7.90;99.90;;;;;;5113171;28;20014;-68
2022/03/30 10:22:01;;;;;;;;;;;8.00;99.90;;;;;;5114816;28;19968;-69
2022/03/30 10:24:26;;;;;;;;;;;7.90;99.90;;;;;;5114955;28;19927;-70
2022/03/30 10:26:55;;;;;;;;;;;8.00;99.90;;;;;;5113208;28;20288;-70
2022/03/30 10:29:22;;;;;;;;;;;8.00;99.90;;;;;;5114116;28;20322;-70
2022/03/30 10:32:06;;;;;;;;;;;8.00;99.90;;;;;;5114496;28;20367;-70
2022/03/30 10:34:32;;;;;;;;;;;8.00;99.90;;;;;;5114795;28;19916;-69
2022/03/30 10:37:00;;;;;;;;;;;8.00;99.90;;;;;;5114413;28;20014;-69
2022/03/30 10:39:27;;;;;;;;;;;7.90;99.90;;;;;;5113200;28;19922;-69
2022/03/30 10:42:03;;;;;;;;;;;7.90;99.90;;;;;;5114113;28;19916;-70
2022/03/30 10:44:36;;;;;;;;;;;7.90;99.90;;;;;;5112117;28;19965;-68
2022/03/30 10:47:06;;;;;;;;;;;8.00;99.90;;;;;;5114183;28;19915;-69
2022/03/30 10:49:58;;;;;;;;;;;8.00;99.90;;;;;;5113947;28;20247;-69
2022/03/30 10:52:43;;;;;;;;;;;8.00;99.90;;;;;;5109757;28;19968;-67
2022/03/30 10:55:11;;;;;;;;;;;8.00;99.90;;;;;;5114306;27;19924;-67
2022/03/30 10:57:46;;;;;;;;;;;8.10;99.90;;;;;;5114078;28;19958;-67
2022/03/30 11:00:21;;;;;;;;;;;8.00;99.90;;;;;;5092776;28;19916;-67
2022/03/30 11:02:47;;;;;;;;;;;8.10;99.90;;;;;;5110424;28;19922;-67
2022/03/30 11:05:14;;;;;;;;;;;8.10;99.90;;;;;;5094723;28;20555;-67
2022/03/30 11:07:39;;;;;;;;;;;8.10;99.90;;;;;;5092255;28;19916;-67
2022/03/30 11:10:24;;;;;;;;;;;8.10;99.90;;;;;;5094574;28;19928;-66
2022/03/30 11:12:59;;;;;;;;;;;8.20;99.90;;;;;;5092072;28;19923;-66
2022/03/30 11:15:25;;;;;;;;;;;8.20;99.90;;;;;;5091698;28;19969;-67
2022/03/30 11:17:51;;;;;;;;;;;8.20;99.90;;;;;;5091996;28;19955;-67
2022/03/30 11:20:16;;;;;;;;;;;8.20;99.90;;;;;;5104578;28;20393;-67
2022/03/30 11:22:44;;;;;;;;;;;8.20;99.90;;;;;;5109251;28;20333;-67
2022/03/30 11:25:10;;;;;;;;;;;8.30;99.90;;;;;;5114999;28;19915;-67
2022/03/30 11:27:37;;;;;;;;;;;8.30;99.90;;;;;;5121029;28;20288;-67
2022/03/30 11:30:09;;;;;;;;;;;8.20;99.90;;;;;;5116513;28;19923;-66
2022/03/30 11:32:37;;;;;;;;;;;8.20;99.90;;;;;;5113568;28;19926;-66
2022/03/30 11:35:07;;;;;;;;;;;8.20;99.90;;;;;;5113568;27;19922;-67
2022/03/30 11:37:35;;;;;;;;;;;8.30;99.90;;;;;;5113460;28;19919;-67
2022/03/30 11:40:02;;;;;;;;;;;8.40;99.90;;;;;;5112937;28;19916;-67
2022/03/30 11:42:28;;;;;;;;;;;8.30;99.90;;;;;;5113138;28;19919;-66
2022/03/30 11:47:37;;;;;;;;;;;8.40;99.90;;;;;;5106958;28;20294;-67
2022/03/30 11:50:03;;;;;;;;;;;8.40;99.90;;;;;;5100173;28;20010;-67
2022/03/30 11:52:29;;;;;;;;;;;8.40;99.90;;;;;;5094658;28;20384;-67
2022/03/30 11:54:54;;;;;;;;;;;8.30;99.90;;;;;;5092438;28;20339;-67
2022/03/30 11:57:20;;;;;;;;;;;8.30;99.90;;;;;;5092202;28;20344;-66
2022/03/30 11:59:53;;;;;;;;;;;8.30;99.90;;;;;;5092283;28;19923;-66
2022/03/30 12:02:19;;;;;;;;;;;8.30;99.90;;;;;;5092695;28;19980;-67
2022/03/30 12:04:44;;;;;;;;;;;8.20;99.90;;;;;;5092161;28;19915;-67
2022/03/30 12:07:13;;;;;;;;;;;8.20;99.90;;;;;;5092200;28;20359;-67
2022/03/30 12:09:49;;;;;;;;;;;8.20;99.90;;;;;;5091671;28;20419;-67
2022/03/30 12:12:30;;;;;;;;;;;8.20;99.90;;;;;;5092199;28;19916;-67
2022/03/30 12:14:57;;;;;;;;;;;8.30;99.90;;;;;;5092150;28;19995;-66
2022/03/30 12:17:23;;;;;;;;;;;8.20;99.90;;;;;;5091918;28;19966;-67
2022/03/30 12:19:49;;;;;;;;;;;8.30;99.90;;;;;;5091509;28;19968;-68
2022/03/30 12:22:15;;;;;;;;;;;8.30;99.90;;;;;;5090780;28;19916;-67
2022/03/30 12:24:40;;;;;;;;;;;8.40;99.90;;;;;;5092163;28;19916;-66
2022/03/30 12:27:07;;;;;;;;;;;8.40;99.90;;;;;;5091998;28;19916;-67
2022/03/30 12:29:32;;;;;;;;;;;8.50;99.90;;;;;;5090471;28;19920;-67
2022/03/30 12:31:59;;;;;;;;;;;8.50;97.50;;;;;;5094561;28;19931;-67
2022/03/30 12:34:26;;;;;;;;;;;8.50;99.60;;;;;;5098102;28;19966;-67
2022/03/30 12:36:54;;;;;;;;;;;8.50;99.90;;;;;;5097586;28;19994;-68
2022/03/30 12:39:19;;;;;;;;;;;8.50;96.10;;;;;;5096948;28;19920;-68
2022/03/30 12:41:54;;;;;;;;;;;8.60;97.00;;;;;;5093723;28;19916;-66
2022/03/30 12:44:19;;;;;;;;;;;8.60;99.40;;;;;;5091785;28;20006;-67
2022/03/30 12:46:46;;;;;;;;;;;8.70;97.60;;;;;;5091318;28;20331;-66
2022/03/30 12:49:11;;;;;;;;;;;8.70;97.70;;;;;;5089794;28;20023;-66
2022/03/30 12:51:37;;;;;;;;;;;8.70;99.90;;;;;;5091879;28;19967;-67
2022/03/30 12:54:03;;;;;;;;;;;8.70;99.80;;;;;;5091668;28;20398;-67
2022/03/30 12:56:29;;;;;;;;;;;8.70;98.30;;;;;;5091537;28;19916;-67
2022/03/30 12:58:56;;;;;;;;;;;8.70;99.40;;;;;;5091237;28;19923;-67
2022/03/30 13:01:35;;;;;;;;;;;8.70;99.90;;;;;;5091549;28;20335;-67
2022/03/30 13:04:01;;;;;;;;;;;8.70;98.10;;;;;;5091410;28;19916;-67
2022/03/30 13:06:27;;;;;;;;;;;8.70;99.40;;;;;;5091210;28;19915;-67
2022/03/30 13:09:06;;;;;;;;;;;8.70;99.20;;;;;;5090422;28;19920;-65
2022/03/30 13:11:32;;;;;;;;;;;8.60;99.90;;;;;;5091388;28;20283;-67
2022/03/30 13:13:58;;;;;;;;;;;8.80;98.70;;;;;;5091028;28;19923;-67
2022/03/30 13:16:28;;;;;;;;;;;8.80;98.90;;;;;;5091191;28;20352;-67
2022/03/30 13:19:00;;;;;;;;;;;8.70;96.30;;;;;;5089702;28;19939;-67
2022/03/30 13:21:34;;;;;;;;;;;8.70;97.80;;;;;;5090237;28;19916;-67
2022/03/30 13:24:08;;;;;;;;;;;8.60;97.90;;;;;;5091119;28;19923;-67
2022/03/30 13:26:38;;;;;;;;;;;8.70;96.30;;;;;;5090971;28;20269;-67
2022/03/30 13:29:03;;;;;;;;;;;8.70;94.80;;;;;;5090816;28;19924;-67
2022/03/30 13:31:30;;;;;;;;;;;8.70;97.10;;;;;;5091346;28;19916;-68
2022/03/30 13:33:57;;;;;;;;;;;8.70;95.10;;;;;;5091118;28;19969;-67
2022/03/30 13:36:23;;;;;;;;;;;8.80;93.50;;;;;;5090998;28;19969;-67
2022/03/30 13:38:49;;;;;;;;;;;8.80;96.50;;;;;;5090790;28;19924;-67
2022/03/30 13:41:16;;;;;;;;;;;8.80;96.70;;;;;;5089472;28;19959;-68
2022/03/30 13:43:42;;;;;;;;;;;8.70;91.70;;;;;;5091294;28;19920;-67
2022/03/30 13:46:08;;;;;;;;;;;8.70;95.50;;;;;;5090630;28;20193;-67
2022/03/30 13:48:34;;;;;;;;;;;8.80;97.70;;;;;;5090200;28;19955;-67
2022/03/30 13:51:02;;;;;;;;;;;8.70;96.80;;;;;;5091058;28;19962;-66
2022/03/30 13:53:29;;;;;;;;;;;8.70;97.70;;;;;;5090727;28;19923;-67
2022/03/30 13:55:54;;;;;;;;;;;8.70;95.70;;;;;;5090770;28;20019;-67
2022/03/30 13:58:20;;;;;;;;;;;8.70;97.10;;;;;;5090491;28;19959;-67
2022/03/30 14:00:45;;;;;;;;;;;8.70;97.20;;;;;;5104270;28;19922;-68
2022/03/30 14:03:11;;;;;;;;;;;8.70;97.00;;;;;;5111245;28;19931;-68
2022/03/30 14:05:36;;;;;;;;;;;8.80;99.90;;;;;;5109869;28;19916;-67
2022/03/30 14:08:02;;;;;;;;;;;8.80;99.90;;;;;;5110106;28;19971;-67
2022/03/30 14:10:27;;;;;;;;;;;8.70;98.30;;;;;;5109253;28;19924;-67
2022/03/30 14:12:53;;;;;;;;;;;8.70;98.20;;;;;;5109952;28;20326;-67
2022/03/30 14:15:19;;;;;;;;;;;8.70;99.90;;;;;;5105339;28;20379;-67
2022/03/30 14:17:45;;;;;;;;;;;8.70;94.90;;;;;;5093226;28;20392;-67
2022/03/30 14:20:11;;;;;;;;;;;8.70;98.00;;;;;;5093018;28;19969;-66
2022/03/30 14:22:37;;;;;;;;;;;8.70;94.90;;;;;;5094076;28;19916;-67
2022/03/30 14:25:03;;;;;;;;;;;8.70;99.30;;;;;;5094176;28;19949;-67
2022/03/30 14:27:29;;;;;;;;;;;8.80;95.20;;;;;;5094304;28;19923;-67
2022/03/30 14:29:55;;;;;;;;;;;8.70;96.80;;;;;;5093870;28;19920;-67
2022/03/30 14:32:21;;;;;;;;;;;8.70;98.40;;;;;;5094246;28;19920;-67
2022/03/30 14:34:50;;;;;;;;;;;8.60;99.40;;;;;;5094240;28;20334;-68
2022/03/30 14:37:16;;;;;;;;;;;8.70;98.70;;;;;;5093716;28;19916;-67
2022/03/30 14:39:42;;;;;;;;;;;8.70;99.80;;;;;;5093786;28;19927;-66
2022/03/30 14:42:07;;;;;;;;;;;8.60;99.10;;;;;;5094119;28;20384;-67